createdAt,value
2017-11-07T00:02:20.474Z,6.75
2017-11-07T00:04:49.493Z,5.53
2017-11-07T00:07:18.500Z,5.60
2017-11-07T00:09:47.586Z,6.07
2017-11-07T00:12:15.822Z,7.60
2017-11-07T00:14:44.144Z,6.18
2017-11-07T00:17:12.392Z,6.57
2017-11-07T00:19:41.393Z,6.15
2017-11-07T00:22:10.426Z,5.70
2017-11-07T00:24:38.664Z,5.80
2017-11-07T00:27:07.673Z,5.30
2017-11-07T00:29:35.926Z,5.67
2017-11-07T00:32:04.933Z,6.00
2017-11-07T00:34:33.186Z,5.50
2017-11-07T00:37:02.198Z,5.77
2017-11-07T00:39:31.201Z,6.50
2017-11-07T00:41:59.439Z,5.70
2017-11-07T00:44:27.696Z,6.40
2017-11-07T00:46:55.940Z,6.00
2017-11-07T00:49:24.182Z,5.60
2017-11-07T00:51:53.209Z,5.90
2017-11-07T00:54:21.429Z,4.90
2017-11-07T00:56:49.685Z,6.00
2017-11-07T00:59:17.916Z,6.03
2017-11-07T01:01:46.165Z,6.00
2017-11-07T01:04:14.403Z,5.97
2017-11-07T01:06:42.660Z,6.20
2017-11-07T01:09:10.897Z,6.03
2017-11-07T01:11:39.123Z,5.73
2017-11-07T01:14:07.366Z,5.93
2017-11-07T01:16:35.609Z,6.00
2017-11-07T01:19:03.862Z,5.97
2017-11-07T01:21:32.092Z,6.80
2017-11-07T01:24:00.345Z,6.80
2017-11-07T01:26:29.346Z,6.07
2017-11-07T01:28:58.354Z,6.33
2017-11-07T01:31:26.600Z,6.37
2017-11-07T01:33:54.841Z,6.60
2017-11-07T01:36:23.073Z,6.30
2017-11-07T01:38:51.336Z,6.90
2017-11-07T01:41:20.341Z,7.07
2017-11-07T01:43:48.578Z,7.17
2017-11-07T01:46:16.830Z,7.10
2017-11-07T01:48:45.065Z,5.90
2017-11-07T01:51:13.321Z,7.07
2017-11-07T01:53:41.558Z,6.70
2017-11-07T01:56:09.797Z,6.70
2017-11-07T01:58:38.041Z,5.57
2017-11-07T02:01:06.286Z,6.57
2017-11-07T02:03:34.530Z,6.73
2017-11-07T02:06:02.777Z,7.33
2017-11-07T02:08:31.785Z,6.33
2017-11-07T02:11:00.027Z,7.40
2017-11-07T02:13:28.274Z,6.33
2017-11-07T02:15:56.506Z,6.33
2017-11-07T02:18:25.521Z,7.27
2017-11-07T02:20:53.758Z,7.17
2017-11-07T02:23:22.174Z,7.60
2017-11-07T02:25:50.410Z,8.43
2017-11-07T02:28:18.653Z,9.40
2017-11-07T02:30:46.891Z,8.50
2017-11-07T02:33:15.131Z,8.33
2017-11-07T02:35:43.372Z,8.27
2017-11-07T02:38:11.630Z,10.07
2017-11-07T02:40:39.869Z,9.60
2017-11-07T02:43:08.908Z,8.40
2017-11-07T02:45:37.153Z,10.87
2017-11-07T02:48:06.163Z,9.83
2017-11-07T02:50:34.419Z,10.27
2017-11-07T02:53:03.431Z,8.87
2017-11-07T02:55:31.667Z,9.80
2017-11-07T02:57:59.912Z,10.13
2017-11-07T03:00:28.160Z,7.93
2017-11-07T03:02:56.405Z,9.60
2017-11-07T03:05:25.421Z,9.30
2017-11-07T03:07:53.663Z,9.33
2017-11-07T03:10:22.678Z,9.47
2017-11-07T03:12:50.918Z,9.27
2017-11-07T03:15:19.179Z,9.50
2017-11-07T03:17:47.414Z,8.87
2017-11-07T03:20:15.678Z,8.90
2017-11-07T03:22:43.923Z,9.07
2017-11-07T03:25:12.165Z,9.60
2017-11-07T03:27:40.415Z,9.33
2017-11-07T03:30:08.656Z,9.03
2017-11-07T03:32:37.671Z,8.70
2017-11-07T03:35:06.679Z,9.37
2017-11-07T03:37:34.922Z,9.37
2017-11-07T03:40:03.924Z,8.53
2017-11-07T03:42:32.935Z,8.77
2017-11-07T03:45:01.170Z,9.20
2017-11-07T03:47:29.413Z,8.23
2017-11-07T03:49:57.657Z,10.30
2017-11-07T03:52:25.918Z,9.70
2017-11-07T03:54:54.924Z,8.50
2017-11-07T03:57:23.162Z,9.63
2017-11-07T03:59:51.408Z,10.00
2017-11-07T04:02:19.643Z,9.80
2017-11-07T04:04:48.663Z,9.53
2017-11-07T04:07:16.906Z,10.37
2017-11-07T04:09:45.917Z,10.17
2017-11-07T04:12:14.157Z,8.57
2017-11-07T04:14:42.408Z,10.80
2017-11-07T04:17:10.644Z,9.53
2017-11-07T04:19:38.890Z,9.73
2017-11-07T04:22:07.894Z,10.67
2017-11-07T04:24:36.901Z,10.13
2017-11-07T04:27:05.175Z,10.50
2017-11-07T04:29:33.418Z,9.57
2017-11-07T04:32:02.429Z,11.77
2017-11-07T04:34:31.620Z,11.10
2017-11-07T04:37:00.638Z,11.90
2017-11-07T04:39:28.885Z,11.07
2017-11-07T04:41:57.916Z,12.67
2017-11-07T04:44:26.158Z,11.13
2017-11-07T04:46:55.162Z,11.40
2017-11-07T04:49:23.413Z,10.57
2017-11-07T04:51:51.658Z,11.17
2017-11-07T04:54:19.906Z,11.50
2017-11-07T04:56:48.170Z,10.10
2017-11-07T04:59:17.172Z,10.97
2017-11-07T05:01:45.410Z,11.17
2017-11-07T05:04:14.433Z,11.77
2017-11-07T05:06:42.677Z,11.23
2017-11-07T05:09:11.697Z,11.73
2017-11-07T05:11:39.938Z,10.70
2017-11-07T05:14:08.211Z,11.37
2017-11-07T05:16:36.451Z,10.73
2017-11-07T05:19:04.694Z,10.60
2017-11-07T05:21:32.942Z,10.40
2017-11-07T05:24:01.182Z,10.40
2017-11-07T05:26:29.438Z,12.27
2017-11-07T05:28:57.677Z,11.20
2017-11-07T05:31:26.797Z,12.80
2017-11-07T05:33:55.044Z,12.37
2017-11-07T05:36:23.293Z,12.03
2017-11-07T05:38:51.545Z,13.30
2017-11-07T05:41:19.809Z,12.27
2017-11-07T05:43:48.049Z,12.23
2017-11-07T05:46:17.050Z,10.90
2017-11-07T05:48:46.063Z,12.57
2017-11-07T05:51:14.305Z,12.90
2017-11-07T05:53:43.326Z,12.83
2017-11-07T05:56:11.570Z,13.77
2017-11-07T05:58:39.822Z,14.13
2017-11-07T06:01:08.067Z,12.53
2017-11-07T06:03:36.316Z,11.00
2017-11-07T06:06:05.317Z,11.47
2017-11-07T06:08:33.570Z,13.20
2017-11-07T06:11:01.813Z,13.83
2017-11-07T06:13:30.079Z,12.73
2017-11-07T06:15:58.328Z,12.60
2017-11-07T06:18:26.570Z,14.10
2017-11-07T06:20:54.813Z,13.67
2017-11-07T06:23:23.079Z,12.57
2017-11-07T06:25:51.310Z,14.33
2017-11-07T06:28:20.315Z,15.00
2017-11-07T06:30:48.559Z,14.03
2017-11-07T06:33:16.799Z,12.80
2017-11-07T06:35:45.042Z,15.13
2017-11-07T06:38:13.278Z,15.13
2017-11-07T06:40:41.530Z,13.97
2017-11-07T06:43:09.769Z,13.73
2017-11-07T06:45:38.025Z,14.10
2017-11-07T06:48:07.037Z,15.70
2017-11-07T06:50:35.293Z,15.20
2017-11-07T06:53:04.300Z,12.80
2017-11-07T06:55:32.559Z,14.40
2017-11-07T06:58:01.562Z,13.33
2017-11-07T07:00:30.570Z,15.03
2017-11-07T07:02:58.819Z,14.00
2017-11-07T07:05:27.828Z,14.70
2017-11-07T07:07:56.082Z,12.67
2017-11-07T07:10:24.327Z,14.43
2017-11-07T07:12:52.571Z,13.90
2017-11-07T07:15:20.814Z,13.73
2017-11-07T07:17:49.825Z,13.17
2017-11-07T07:20:18.066Z,13.20
2017-11-07T07:22:46.318Z,16.70
2017-11-07T07:25:14.568Z,16.07
2017-11-07T07:27:42.832Z,15.10
2017-11-07T07:30:11.074Z,13.63
2017-11-07T07:32:39.322Z,15.27
2017-11-07T07:35:07.570Z,14.87
2017-11-07T07:37:35.813Z,14.23
2017-11-07T07:40:04.827Z,15.10
2017-11-07T07:42:33.070Z,14.80
2017-11-07T07:45:02.078Z,15.40
2017-11-07T07:47:31.087Z,15.20
2017-11-07T07:49:59.336Z,15.40
2017-11-07T07:52:27.572Z,14.80
2017-11-07T07:54:55.826Z,15.17
2017-11-07T07:57:24.058Z,13.93
2017-11-07T07:59:53.070Z,13.83
2017-11-07T08:02:21.309Z,13.47
2017-11-07T08:04:49.554Z,16.07
2017-11-07T08:07:17.799Z,12.70
2017-11-07T08:09:46.054Z,15.57
2017-11-07T08:12:14.291Z,14.90
2017-11-07T08:14:42.541Z,14.40
2017-11-07T08:17:10.781Z,13.00
2017-11-07T08:19:39.018Z,14.03
2017-11-07T08:22:07.250Z,13.60
2017-11-07T08:24:35.494Z,12.90
2017-11-07T08:27:03.730Z,14.77
2017-11-07T08:29:31.977Z,13.17
2017-11-07T08:32:00.217Z,14.03
2017-11-07T08:34:28.476Z,12.87
2017-11-07T08:36:56.726Z,13.60
2017-11-07T08:39:24.958Z,13.53
2017-11-07T08:41:53.974Z,15.00
2017-11-07T08:44:22.218Z,14.23
2017-11-07T08:46:50.466Z,13.87
2017-11-07T08:49:19.475Z,15.37
2017-11-07T08:51:47.719Z,13.57
2017-11-07T08:54:15.966Z,13.87
2017-11-07T08:56:44.211Z,14.53
2017-11-07T08:59:13.222Z,12.20
2017-11-07T09:01:42.238Z,14.23
2017-11-07T09:04:10.468Z,14.30
2017-11-07T09:06:39.498Z,13.80
2017-11-07T09:09:07.737Z,13.90
2017-11-07T09:11:35.984Z,14.03
2017-11-07T09:14:04.224Z,11.97
2017-11-07T09:16:32.470Z,13.53
2017-11-07T09:19:01.490Z,14.60
2017-11-07T09:21:29.738Z,13.23
2017-11-07T09:23:58.754Z,15.43
2017-11-07T09:26:26.999Z,14.43
2017-11-07T09:28:55.250Z,13.87
2017-11-07T09:31:23.499Z,13.40
2017-11-07T09:33:51.751Z,13.27
2017-11-07T09:36:19.994Z,16.80
2017-11-07T09:38:48.267Z,15.57
2017-11-07T09:41:16.501Z,14.40
2017-11-07T09:43:44.747Z,13.07
2017-11-07T09:46:13.759Z,14.90
2017-11-07T09:48:42.002Z,14.07
2017-11-07T09:51:11.026Z,13.43
2017-11-07T09:53:39.279Z,13.80
2017-11-07T09:56:08.289Z,13.77
2017-11-07T09:58:36.534Z,14.60
2017-11-07T10:01:04.787Z,15.03
2017-11-07T10:03:33.034Z,16.60
2017-11-07T10:06:01.282Z,16.63
2017-11-07T10:08:29.526Z,14.73
2017-11-07T10:10:57.773Z,16.00
2017-11-07T10:13:26.781Z,14.83
2017-11-07T10:15:55.026Z,14.60
2017-11-07T10:18:23.272Z,14.03
2017-11-07T10:20:52.288Z,15.80
2017-11-07T10:23:20.519Z,14.20
2017-11-07T10:25:48.766Z,13.63
2017-11-07T10:28:17.015Z,13.60
2017-11-07T10:30:45.266Z,13.63
2017-11-07T10:33:14.278Z,12.77
2017-11-07T10:35:42.529Z,14.30
2017-11-07T10:38:11.533Z,13.67
2017-11-07T10:40:39.789Z,13.20
2017-11-07T10:43:08.797Z,13.00
2017-11-07T10:45:37.053Z,12.03
2017-11-07T10:48:05.294Z,12.10
2017-11-07T10:50:33.547Z,13.27
2017-11-07T10:53:01.933Z,13.73
2017-11-07T10:55:30.200Z,13.20
2017-11-07T10:57:58.442Z,13.83
2017-11-07T11:00:27.461Z,11.33
2017-11-07T11:02:55.703Z,12.33
2017-11-07T11:05:24.721Z,11.17
2017-11-07T11:07:52.958Z,13.20
2017-11-07T11:10:21.201Z,12.10
2017-11-07T11:12:49.449Z,12.37
2017-11-07T11:15:17.692Z,11.60
2017-11-07T11:17:45.937Z,13.23
2017-11-07T11:20:14.186Z,12.40
2017-11-07T11:22:42.434Z,12.67
2017-11-07T11:25:11.439Z,12.63
2017-11-07T11:27:39.689Z,11.80
2017-11-07T11:30:07.934Z,11.33
2017-11-07T11:32:36.175Z,12.43
2017-11-07T11:35:04.428Z,12.90
2017-11-07T11:37:33.437Z,12.07
2017-11-07T11:40:01.682Z,10.80
2017-11-07T11:42:30.689Z,11.33
2017-11-07T11:44:59.715Z,11.63
2017-11-07T11:47:27.953Z,13.37
2017-11-07T11:49:56.967Z,12.00
2017-11-07T11:52:25.214Z,12.27
2017-11-07T11:54:54.234Z,12.33
2017-11-07T11:57:22.482Z,11.80
2017-11-07T11:59:51.500Z,12.83
2017-11-07T12:02:19.748Z,11.60
2017-11-07T12:04:47.979Z,10.33
2017-11-07T12:07:16.226Z,12.57
2017-11-07T12:09:44.476Z,10.83
2017-11-07T12:12:13.498Z,11.90
2017-11-07T12:14:41.741Z,11.90
2017-11-07T12:17:10.753Z,12.23
2017-11-07T12:19:39.007Z,12.63
2017-11-07T12:22:07.256Z,11.90
2017-11-07T12:24:35.587Z,11.13
2017-11-07T12:27:03.839Z,11.03
2017-11-07T12:29:32.856Z,10.47
2017-11-07T12:32:01.105Z,13.03
2017-11-07T12:34:29.337Z,12.13
2017-11-07T12:36:57.646Z,12.07
2017-11-07T12:39:25.895Z,11.20
2017-11-07T12:41:54.152Z,12.60
2017-11-07T12:44:22.382Z,12.90
2017-11-07T12:46:51.412Z,13.00
2017-11-07T12:49:19.677Z,14.63
2017-11-07T12:51:59.766Z,12.93
2017-11-07T12:54:28.018Z,12.30
2017-11-07T12:56:56.272Z,12.53
2017-11-07T12:59:25.283Z,13.77
2017-11-07T13:01:53.541Z,12.03
2017-11-07T13:04:22.552Z,12.60
2017-11-07T13:06:50.802Z,14.10
2017-11-07T13:09:19.813Z,12.03
2017-11-07T13:11:48.064Z,13.20
2017-11-07T13:14:17.066Z,12.80
2017-11-07T13:16:46.089Z,12.70
2017-11-07T13:19:14.334Z,13.00
2017-11-07T13:21:43.355Z,11.90
2017-11-07T13:24:11.606Z,12.87
2017-11-07T13:26:40.610Z,13.40
2017-11-07T13:29:08.872Z,14.00
2017-11-07T13:31:37.870Z,13.60
2017-11-07T13:34:06.887Z,13.50
2017-11-07T13:36:35.130Z,12.83
2017-11-07T13:39:04.138Z,13.67
2017-11-07T13:41:32.386Z,11.93
2017-11-07T13:44:00.638Z,12.57
2017-11-07T13:46:28.868Z,13.20
2017-11-07T13:48:57.119Z,13.20
2017-11-07T13:51:26.129Z,14.97
2017-11-07T13:53:54.386Z,14.03
2017-11-07T13:56:23.398Z,14.03
2017-11-07T13:58:51.647Z,14.13
2017-11-07T14:01:19.899Z,13.37
2017-11-07T14:03:48.145Z,13.37
2017-11-07T14:06:16.386Z,13.93
2017-11-07T14:08:45.395Z,13.03
2017-11-07T14:11:13.642Z,13.37
2017-11-07T14:13:41.883Z,13.13
2017-11-07T14:16:10.134Z,14.20
2017-11-07T14:18:38.383Z,14.40
2017-11-07T14:21:07.410Z,15.20
2017-11-07T14:23:35.653Z,15.37
2017-11-07T14:26:04.663Z,14.40
2017-11-07T14:28:32.910Z,18.47
2017-11-07T14:31:01.945Z,16.20
2017-11-07T14:33:30.182Z,14.20
2017-11-07T14:35:59.186Z,13.77
2017-11-07T14:38:28.202Z,13.20
2017-11-07T14:40:56.446Z,14.47
2017-11-07T14:43:25.475Z,15.07
2017-11-07T14:45:53.707Z,15.10
2017-11-07T14:48:22.729Z,15.23
2017-11-07T14:50:50.974Z,14.63
2017-11-07T14:53:19.991Z,15.37
2017-11-07T14:55:48.242Z,16.40
2017-11-07T14:58:17.251Z,15.33
2017-11-07T15:00:46.262Z,14.07
2017-11-07T15:03:14.511Z,15.00
2017-11-07T15:05:43.518Z,15.10
2017-11-07T15:08:11.770Z,15.43
2017-11-07T15:10:40.779Z,14.07
2017-11-07T15:13:09.794Z,16.50
2017-11-07T15:15:38.046Z,14.17
2017-11-07T15:18:07.073Z,16.23
2017-11-07T15:20:35.309Z,14.83
2017-11-07T15:23:04.329Z,16.37
2017-11-07T15:25:32.576Z,15.90
2017-11-07T15:28:01.585Z,14.43
2017-11-07T15:30:29.827Z,14.90
2017-11-07T15:32:58.090Z,16.20
2017-11-07T15:35:26.338Z,15.63
2017-11-07T15:37:54.591Z,17.90
2017-11-07T15:40:22.844Z,17.17
2017-11-07T15:42:51.862Z,14.90
2017-11-07T15:45:20.124Z,17.10
2017-11-07T15:47:49.126Z,15.17
2017-11-07T15:50:17.366Z,16.43
2017-11-07T15:52:45.618Z,17.00
2017-11-07T15:55:13.871Z,16.90
2017-11-07T15:57:42.124Z,15.93
2017-11-07T16:00:11.144Z,16.03
2017-11-07T16:02:40.220Z,16.53
2017-11-07T16:05:08.465Z,16.27
2017-11-07T16:07:36.715Z,15.77
2017-11-07T16:10:04.964Z,17.90
2017-11-07T16:12:33.213Z,14.20
2017-11-07T16:15:01.464Z,16.97
2017-11-07T16:17:29.727Z,17.10
2017-11-07T16:19:57.954Z,16.33
2017-11-07T16:22:26.210Z,17.87
2017-11-07T16:24:55.222Z,17.77
2017-11-07T16:27:23.474Z,17.90
2017-11-07T16:29:52.487Z,15.13
2017-11-07T16:32:20.731Z,18.43
2017-11-07T16:34:49.742Z,17.97
2017-11-07T16:37:18.766Z,17.40
2017-11-07T16:39:48.563Z,16.07
2017-11-07T16:42:16.808Z,16.77
2017-11-07T16:44:45.821Z,18.43
2017-11-07T16:47:14.069Z,17.47
2017-11-07T16:49:42.307Z,16.40
2017-11-07T16:52:10.553Z,19.37
2017-11-07T16:54:38.796Z,16.03
2017-11-07T16:57:07.817Z,18.00
2017-11-07T16:59:36.062Z,17.23
2017-11-07T17:02:05.078Z,17.73
2017-11-07T17:04:33.345Z,18.30
2017-11-07T17:07:02.384Z,17.10
2017-11-07T17:09:30.643Z,18.40
2017-11-07T17:11:58.884Z,16.93
2017-11-07T17:14:27.905Z,17.57
2017-11-07T17:16:56.153Z,16.30
2017-11-07T17:19:25.162Z,16.73
2017-11-07T17:21:53.423Z,19.23
2017-11-07T17:24:22.428Z,17.50
2017-11-07T17:26:50.677Z,17.37
2017-11-07T17:29:19.698Z,17.00
2017-11-07T17:31:48.714Z,16.37
2017-11-07T17:34:16.959Z,26.63
2017-11-07T17:36:45.990Z,19.30
2017-11-07T17:39:14.238Z,16.50
2017-11-07T17:41:42.484Z,15.70
2017-11-07T17:44:10.741Z,15.97
2017-11-07T17:46:38.978Z,15.33
2017-11-07T17:49:07.221Z,16.20
2017-11-07T17:51:36.241Z,17.87
2017-11-07T17:54:04.488Z,17.57
2017-11-07T17:56:33.489Z,16.90
2017-11-07T17:59:02.506Z,16.27
2017-11-07T18:01:30.751Z,15.27
2017-11-07T18:03:59.772Z,15.77
2017-11-07T18:06:28.018Z,15.63
2017-11-07T18:08:57.034Z,17.33
2017-11-07T18:11:25.281Z,17.63
2017-11-07T18:13:53.529Z,18.90
2017-11-07T18:16:21.776Z,15.57
2017-11-07T18:18:50.019Z,17.40
2017-11-07T18:21:19.030Z,15.80
2017-11-07T18:23:47.283Z,16.97
2017-11-07T18:26:16.286Z,16.30
2017-11-07T18:28:44.538Z,17.97
2017-11-07T18:31:12.779Z,17.80
2017-11-07T18:33:41.034Z,18.13
2017-11-07T18:36:09.275Z,16.77
2017-11-07T18:38:38.286Z,16.17
2017-11-07T18:41:06.532Z,16.67
2017-11-07T18:43:34.790Z,14.10
2017-11-07T18:46:03.034Z,15.30
2017-11-07T18:48:31.278Z,17.00
2017-11-07T18:51:00.291Z,16.73
2017-11-07T18:53:28.541Z,17.40
2017-11-07T18:55:57.550Z,18.83
2017-11-07T18:58:26.563Z,18.20
2017-11-07T19:00:54.807Z,17.33
2017-11-07T19:03:23.818Z,17.97
2017-11-07T19:05:52.063Z,18.13
2017-11-07T19:08:20.307Z,16.97
2017-11-07T19:10:48.555Z,18.77
2017-11-07T19:13:16.803Z,17.50
2017-11-07T19:15:45.812Z,16.57
2017-11-07T19:18:14.064Z,17.10
2017-11-07T19:20:43.068Z,15.60
2017-11-07T19:23:12.083Z,18.00
2017-11-07T19:25:40.340Z,19.33
2017-11-07T19:28:09.339Z,17.20
2017-11-07T19:30:37.582Z,17.07
2017-11-07T19:33:05.835Z,18.10
2017-11-07T19:35:34.079Z,16.20
2017-11-07T19:38:02.333Z,16.93
2017-11-07T19:40:31.336Z,16.63
2017-11-07T19:42:59.581Z,16.63
2017-11-07T19:45:28.593Z,18.43
2017-11-07T19:47:57.607Z,18.40
2017-11-07T19:50:25.842Z,17.07
2017-11-07T19:52:54.865Z,17.57
2017-11-07T19:55:23.118Z,17.00
2017-11-07T19:57:52.119Z,17.43
2017-11-07T20:00:21.132Z,15.23
2017-11-07T20:02:49.383Z,17.70
2017-11-07T20:05:18.395Z,17.80
2017-11-07T20:07:46.655Z,16.73
2017-11-07T20:10:15.661Z,16.40
2017-11-07T20:12:43.921Z,16.30
2017-11-07T20:15:12.929Z,17.33
2017-11-07T20:17:41.204Z,19.20
2017-11-07T20:20:09.445Z,19.80
2017-11-07T20:22:37.723Z,17.87
2017-11-07T20:25:05.980Z,17.13
2017-11-07T20:27:34.218Z,19.27
2017-11-07T20:30:02.472Z,17.70
2017-11-07T20:32:30.721Z,18.63
2017-11-07T20:34:58.990Z,19.60
2017-11-07T20:37:27.233Z,19.60
2017-11-07T20:39:55.487Z,18.00
2017-11-07T20:42:23.739Z,18.60
2017-11-07T20:44:52.745Z,17.73
2017-11-07T20:47:20.989Z,19.40
2017-11-07T20:49:49.891Z,17.77
2017-11-07T20:52:18.899Z,18.53
2017-11-07T20:54:47.916Z,18.43
2017-11-07T20:57:16.154Z,19.00
2017-11-07T20:59:45.173Z,18.40
2017-11-07T21:02:13.422Z,18.37
2017-11-07T21:04:41.666Z,18.27
2017-11-07T21:07:09.916Z,18.63
2017-11-07T21:09:38.165Z,18.63
2017-11-07T21:12:06.402Z,18.60
2017-11-07T21:14:34.655Z,19.60
2017-11-07T21:17:02.901Z,18.43
2017-11-07T21:19:32.943Z,18.90
2017-11-07T21:22:01.189Z,19.23
2017-11-07T21:24:29.437Z,20.10
2017-11-07T21:26:58.457Z,20.53
2017-11-07T21:29:26.705Z,20.77
2017-11-07T21:31:55.717Z,20.23
2017-11-07T21:34:24.718Z,20.60
2017-11-07T21:36:52.962Z,20.03
2017-11-07T21:39:21.211Z,19.47
2017-11-07T21:41:49.458Z,17.37
2017-11-07T21:44:17.705Z,19.07
2017-11-07T21:46:46.714Z,18.83
2017-11-07T21:49:14.970Z,19.40
2017-11-07T21:51:43.982Z,20.30
2017-11-07T21:54:12.229Z,19.10
2017-11-07T21:56:41.244Z,19.67
2017-11-07T21:59:09.498Z,19.20
2017-11-07T22:01:37.736Z,19.03
2017-11-07T22:04:05.992Z,22.77
2017-11-07T22:06:34.250Z,21.00
2017-11-07T22:09:02.502Z,22.20
2017-11-07T22:11:31.515Z,18.10
2017-11-07T22:13:59.786Z,21.20
2017-11-07T22:16:28.799Z,19.93
2017-11-07T22:19:03.450Z,20.90
2017-11-07T22:21:31.693Z,18.57
2017-11-07T22:23:59.935Z,19.63
2017-11-07T22:26:28.181Z,19.00
2017-11-07T22:28:57.195Z,18.53
2017-11-07T22:31:28.268Z,18.97
2017-11-07T22:33:56.506Z,20.80
2017-11-07T22:36:24.760Z,19.87
2017-11-07T22:38:56.966Z,20.80
2017-11-07T22:41:26.066Z,20.47
2017-11-07T22:43:55.902Z,20.60
2017-11-07T22:46:24.208Z,20.10
2017-11-07T22:48:53.314Z,21.50
2017-11-07T22:51:21.652Z,20.60
2017-11-07T22:53:50.028Z,21.30
2017-11-07T22:56:18.400Z,22.10
2017-11-07T22:58:47.534Z,20.63
2017-11-07T23:13:52.130Z,21.20
2017-11-07T23:16:20.458Z,22.20
2017-11-07T23:18:49.487Z,21.17
2017-11-07T23:21:17.767Z,21.23
2017-11-07T23:23:46.010Z,21.87
2017-11-07T23:26:15.010Z,20.60
2017-11-07T23:28:44.043Z,22.60
2017-11-07T23:31:12.282Z,22.07
2017-11-07T23:33:40.530Z,21.07
2017-11-07T23:36:08.786Z,22.03
2017-11-07T23:38:37.024Z,21.93
2017-11-07T23:41:05.276Z,20.83
2017-11-07T23:43:34.285Z,21.23
2017-11-07T23:46:02.544Z,21.27
2017-11-07T23:48:31.544Z,19.63
2017-11-07T23:51:02.374Z,21.53
2017-11-07T23:53:31.384Z,24.47
2017-11-07T23:55:59.634Z,21.40
2017-11-07T23:58:30.493Z,20.90
